createdAt,value
2018-08-03T00:00:44.496Z,16.13
2018-08-03T00:03:14.779Z,14.50
2018-08-03T00:05:44.529Z,17.10
2018-08-03T00:08:15.158Z,17.47
2018-08-03T00:10:44.781Z,14.90
2018-08-03T00:13:14.188Z,15.20
2018-08-03T00:15:43.677Z,15.90
2018-08-03T00:18:13.154Z,15.20
2018-08-03T00:20:42.909Z,17.00
2018-08-03T00:23:12.411Z,16.30
2018-08-03T00:25:42.024Z,15.00
2018-08-03T00:28:11.764Z,15.77
2018-08-03T00:30:42.201Z,15.47
2018-08-03T00:33:11.765Z,15.23
2018-08-03T00:35:41.200Z,14.27
2018-08-03T00:38:10.990Z,14.60
2018-08-03T00:40:40.448Z,14.80
2018-08-03T00:43:10.999Z,15.10
2018-08-03T00:45:40.642Z,15.90
2018-08-03T00:48:10.202Z,15.20
2018-08-03T00:50:39.799Z,14.93
2018-08-03T00:53:09.435Z,14.20
2018-08-03T00:55:38.841Z,15.17
2018-08-03T00:58:08.719Z,15.27
2018-08-03T01:00:40.240Z,14.43
2018-08-03T01:03:09.845Z,14.37
2018-08-03T01:05:39.333Z,15.33
2018-08-03T01:08:08.682Z,14.90
2018-08-03T01:10:38.428Z,14.77
2018-08-03T01:13:07.880Z,15.33
2018-08-03T01:15:37.267Z,13.73
2018-08-03T01:18:06.689Z,14.37
2018-08-03T01:20:36.131Z,15.60
2018-08-03T01:23:05.520Z,16.30
2018-08-03T01:25:34.917Z,14.57
2018-08-03T01:28:04.421Z,15.03
2018-08-03T01:30:34.151Z,15.27
2018-08-03T01:33:03.609Z,15.47
2018-08-03T01:35:33.013Z,16.10
2018-08-03T01:38:02.414Z,15.83
2018-08-03T01:40:32.298Z,16.17
2018-08-03T01:43:01.827Z,16.10
2018-08-03T01:45:31.333Z,15.50
2018-08-03T01:48:00.788Z,15.83
2018-08-03T01:50:30.318Z,15.30
2018-08-03T01:52:59.697Z,16.67
2018-08-03T01:55:29.124Z,14.47
2018-08-03T01:57:58.564Z,14.80
2018-08-03T02:00:28.015Z,15.17
2018-08-03T02:02:57.468Z,14.20
2018-08-03T02:05:26.861Z,15.00
2018-08-03T02:07:56.343Z,14.50
2018-08-03T02:10:25.786Z,16.00
2018-08-03T02:12:55.227Z,15.50
2018-08-03T02:15:24.698Z,14.43
2018-08-03T02:17:54.500Z,14.97
2018-08-03T02:20:23.865Z,15.53
2018-08-03T02:22:53.240Z,14.57
2018-08-03T02:25:22.783Z,15.13
2018-08-03T02:27:52.380Z,15.40
2018-08-03T02:30:21.813Z,15.27
2018-08-03T02:32:51.279Z,15.90
2018-08-03T02:35:20.718Z,15.30
2018-08-03T02:37:50.074Z,14.63
2018-08-03T02:40:19.752Z,14.00
2018-08-03T02:42:49.503Z,15.77
2018-08-03T02:45:18.902Z,14.27
2018-08-03T02:47:48.469Z,15.00
2018-08-03T02:50:17.859Z,15.63
2018-08-03T02:52:47.351Z,17.00
2018-08-03T02:55:16.756Z,14.73
2018-08-03T02:57:46.209Z,15.87
2018-08-03T03:00:15.668Z,16.17
2018-08-03T03:02:45.379Z,13.83
2018-08-03T03:05:14.763Z,13.93
2018-08-03T03:07:44.192Z,16.27
2018-08-03T03:10:15.221Z,16.33
2018-08-03T03:12:44.669Z,15.50
2018-08-03T03:15:14.136Z,16.33
2018-08-03T03:17:43.697Z,15.10
2018-08-03T03:20:13.178Z,15.00
2018-08-03T03:22:42.772Z,14.93
2018-08-03T03:25:12.225Z,14.40
2018-08-03T03:27:41.666Z,15.60
2018-08-03T03:30:11.086Z,14.70
2018-08-03T03:32:40.521Z,14.67
2018-08-03T03:35:10.137Z,15.03
2018-08-03T03:37:39.551Z,16.00
2018-08-03T03:40:09.114Z,15.17
2018-08-03T03:42:38.520Z,14.60
2018-08-03T03:45:07.954Z,15.43
2018-08-03T03:47:37.473Z,15.40
2018-08-03T03:50:07.137Z,14.53
2018-08-03T03:52:36.779Z,14.80
2018-08-03T03:55:06.344Z,14.40
2018-08-03T03:57:35.737Z,16.90
2018-08-03T04:00:06.776Z,16.47
2018-08-03T04:02:36.857Z,14.90
2018-08-03T04:05:07.132Z,16.57
2018-08-03T04:07:36.550Z,14.67
2018-08-03T04:10:06.482Z,17.83
2018-08-03T04:12:35.869Z,17.10
2018-08-03T04:15:06.185Z,17.07
2018-08-03T04:17:35.696Z,15.90
2018-08-03T04:20:05.911Z,17.00
2018-08-03T04:22:35.500Z,16.73
2018-08-03T04:25:06.118Z,16.80
2018-08-03T04:27:36.000Z,17.77
2018-08-03T04:30:06.465Z,17.50
2018-08-03T04:32:35.824Z,16.03
2018-08-03T04:35:05.854Z,16.47
2018-08-03T04:37:35.325Z,17.27
2018-08-03T04:40:05.569Z,17.27
2018-08-03T04:42:35.031Z,16.30
2018-08-03T04:45:05.113Z,16.73
2018-08-03T04:47:34.637Z,15.30
2018-08-03T04:50:04.649Z,17.27
2018-08-03T04:52:34.152Z,16.63
2018-08-03T04:55:04.101Z,17.10
2018-08-03T04:57:33.839Z,15.60
2018-08-03T05:00:03.899Z,16.20
2018-08-03T05:02:33.349Z,16.80
2018-08-03T05:05:02.984Z,15.20
2018-08-03T05:07:32.402Z,15.33
2018-08-03T05:10:01.843Z,14.17
2018-08-03T05:12:31.252Z,15.73
2018-08-03T05:15:00.641Z,15.47
2018-08-03T05:17:30.084Z,16.13
2018-08-03T05:19:59.514Z,15.97
2018-08-03T05:22:29.265Z,17.07
2018-08-03T05:24:58.668Z,17.00
2018-08-03T05:27:28.095Z,16.93
2018-08-03T05:29:57.512Z,15.93
2018-08-03T05:32:27.004Z,14.70
2018-08-03T05:34:56.399Z,15.97
2018-08-03T05:37:26.334Z,15.90
2018-08-03T05:39:56.004Z,15.87
2018-08-03T05:42:25.441Z,16.03
2018-08-03T05:44:55.181Z,15.90
2018-08-03T05:47:24.610Z,15.90
2018-08-03T05:49:54.081Z,15.80
2018-08-03T05:52:24.267Z,16.67
2018-08-03T05:54:53.871Z,16.23
2018-08-03T05:57:23.256Z,16.70
2018-08-03T05:59:52.650Z,16.13
2018-08-03T06:02:22.324Z,14.87
2018-08-03T06:04:52.407Z,15.27
2018-08-03T06:07:21.798Z,16.20
2018-08-03T06:09:51.665Z,15.77
2018-08-03T06:12:21.035Z,15.10
2018-08-03T06:14:50.485Z,15.33
2018-08-03T06:17:19.891Z,15.20
2018-08-03T06:19:49.328Z,14.70
2018-08-03T06:22:18.706Z,14.37
2018-08-03T06:24:48.121Z,15.73
2018-08-03T06:27:17.901Z,15.97
2018-08-03T06:29:47.425Z,16.53
2018-08-03T06:32:16.967Z,13.83
2018-08-03T06:34:46.411Z,16.20
2018-08-03T06:37:15.866Z,16.63
2018-08-03T06:39:45.306Z,14.53
2018-08-03T06:42:14.760Z,15.30
2018-08-03T06:44:44.204Z,15.27
2018-08-03T06:47:13.598Z,15.53
2018-08-03T06:49:43.036Z,15.07
2018-08-03T06:52:12.510Z,16.70
2018-08-03T06:54:41.973Z,15.13
2018-08-03T06:57:11.416Z,15.30
2018-08-03T06:59:41.680Z,16.03
2018-08-03T07:02:11.695Z,13.63
2018-08-03T07:04:41.117Z,14.83
2018-08-03T07:07:11.436Z,15.27
2018-08-03T07:09:41.710Z,15.90
2018-08-03T07:12:11.358Z,16.80
2018-08-03T07:14:40.947Z,15.93
2018-08-03T07:17:10.568Z,15.53
2018-08-03T07:19:40.097Z,15.03
2018-08-03T07:22:09.535Z,16.20
2018-08-03T07:24:38.964Z,15.20
2018-08-03T07:27:08.372Z,16.90
2018-08-03T07:29:37.864Z,16.57
2018-08-03T07:32:07.353Z,16.40
2018-08-03T07:34:36.952Z,14.70
2018-08-03T07:37:06.673Z,15.13
2018-08-03T07:39:36.075Z,15.40
2018-08-03T07:42:05.517Z,15.30
2018-08-03T07:44:34.921Z,15.33
2018-08-03T07:47:04.592Z,14.80
2018-08-03T07:49:33.996Z,15.47
2018-08-03T07:52:03.981Z,14.80
2018-08-03T07:54:33.408Z,14.90
2018-08-03T07:57:02.875Z,14.10
2018-08-03T07:59:33.164Z,14.47
2018-08-03T08:02:03.157Z,13.73
2018-08-03T08:04:33.060Z,15.20
2018-08-03T08:07:02.604Z,15.00
2018-08-03T08:09:33.020Z,14.93
2018-08-03T08:12:02.832Z,14.20
2018-08-03T08:14:32.224Z,15.10
2018-08-03T08:17:02.049Z,13.80
2018-08-03T08:19:31.894Z,14.47
2018-08-03T08:22:01.381Z,15.40
2018-08-03T08:24:30.864Z,15.10
2018-08-03T08:27:00.621Z,13.97
2018-08-03T08:29:30.118Z,15.00
2018-08-03T08:31:59.521Z,14.03
2018-08-03T08:34:28.938Z,14.70
2018-08-03T08:36:58.531Z,13.47
2018-08-03T08:39:28.217Z,15.70
2018-08-03T08:41:57.667Z,15.40
2018-08-03T08:44:27.476Z,15.70
2018-08-03T08:46:56.895Z,16.43
2018-08-03T08:49:26.369Z,15.30
2018-08-03T08:51:56.235Z,13.93
2018-08-03T08:54:26.230Z,15.77
2018-08-03T08:56:57.584Z,16.33
2018-08-03T08:59:27.076Z,14.43
2018-08-03T09:01:56.588Z,14.93
2018-08-03T09:04:26.183Z,15.57
2018-08-03T09:06:55.736Z,13.63
2018-08-03T09:09:25.441Z,14.50
2018-08-03T09:11:55.213Z,15.13
2018-08-03T09:14:24.779Z,14.07
2018-08-03T09:16:54.222Z,14.97
2018-08-03T09:19:23.869Z,16.07
2018-08-03T09:21:53.622Z,13.70
2018-08-03T09:24:23.431Z,14.90
2018-08-03T09:26:53.021Z,15.37
2018-08-03T09:29:23.472Z,14.90
2018-08-03T09:31:52.861Z,14.60
2018-08-03T09:34:22.725Z,13.63
2018-08-03T09:36:52.100Z,15.50
2018-08-03T09:39:21.496Z,15.70
2018-08-03T09:41:51.227Z,14.07
2018-08-03T09:44:20.634Z,14.07
2018-08-03T09:46:50.066Z,14.70
2018-08-03T09:49:19.544Z,14.87
2018-08-03T09:51:49.107Z,16.30
2018-08-03T09:54:18.607Z,13.60
2018-08-03T09:56:47.980Z,15.20
2018-08-03T09:59:17.457Z,14.37
2018-08-03T10:01:47.383Z,13.40
2018-08-03T10:04:17.016Z,13.23
2018-08-03T10:06:46.564Z,15.23
2018-08-03T10:09:16.020Z,14.40
2018-08-03T10:11:45.424Z,13.87
2018-08-03T10:14:14.837Z,12.90
2018-08-03T10:16:44.411Z,12.70
2018-08-03T10:19:13.824Z,13.30
2018-08-03T10:21:43.875Z,13.80
2018-08-03T10:24:13.315Z,13.43
2018-08-03T10:26:42.764Z,12.37
2018-08-03T10:29:12.217Z,12.70
2018-08-03T10:31:41.673Z,13.47
2018-08-03T10:34:11.139Z,13.37
2018-08-03T10:36:40.628Z,13.57
2018-08-03T10:39:10.956Z,13.00
2018-08-03T10:41:41.441Z,12.60
2018-08-03T10:44:11.585Z,11.50
2018-08-03T10:46:41.007Z,11.67
2018-08-03T10:49:10.449Z,12.97
2018-08-03T10:51:39.930Z,10.63
2018-08-03T10:54:09.361Z,12.47
2018-08-03T10:56:38.961Z,12.40
2018-08-03T10:59:08.410Z,12.17
2018-08-03T11:01:38.116Z,10.93
2018-08-03T11:04:07.889Z,12.33
2018-08-03T11:06:37.669Z,10.10
2018-08-03T11:09:08.988Z,12.30
2018-08-03T11:11:38.377Z,10.77
2018-08-03T11:14:07.785Z,10.00
2018-08-03T11:16:37.212Z,10.53
2018-08-03T11:19:06.681Z,10.53
2018-08-03T11:21:36.094Z,11.23
2018-08-03T11:24:05.810Z,11.23
2018-08-03T11:26:35.439Z,11.80
2018-08-03T11:29:04.905Z,10.70
2018-08-03T11:31:34.285Z,10.83
2018-08-03T11:34:04.341Z,10.70
2018-08-03T11:36:33.732Z,10.37
2018-08-03T11:39:03.231Z,9.53
2018-08-03T11:41:32.644Z,9.60
2018-08-03T11:44:02.034Z,8.87
2018-08-03T11:46:31.689Z,10.20
2018-08-03T11:49:01.104Z,9.33
2018-08-03T11:51:30.523Z,10.37
2018-08-03T11:53:59.983Z,10.00
2018-08-03T11:56:29.605Z,9.00
2018-08-03T11:59:02.868Z,10.07
2018-08-03T12:01:32.292Z,10.53
2018-08-03T12:04:01.697Z,9.17
2018-08-03T12:06:31.161Z,9.70
2018-08-03T12:09:00.686Z,9.30
2018-08-03T12:11:30.107Z,8.90
2018-08-03T12:13:59.821Z,9.73
2018-08-03T12:16:29.200Z,9.33
2018-08-03T12:18:58.646Z,9.77
2018-08-03T12:21:28.046Z,11.20
2018-08-03T12:23:57.928Z,8.60
2018-08-03T12:26:27.472Z,8.50
2018-08-03T12:28:57.611Z,8.60
2018-08-03T12:31:27.434Z,7.83
2018-08-03T12:33:56.928Z,8.30
2018-08-03T12:36:26.398Z,7.57
2018-08-03T12:38:56.709Z,8.97
2018-08-03T12:41:26.100Z,8.20
2018-08-03T12:43:58.264Z,8.33
2018-08-03T12:46:27.670Z,7.83
2018-08-03T12:48:57.077Z,7.30
2018-08-03T12:51:26.559Z,7.33
2018-08-03T12:53:56.142Z,6.80
2018-08-03T12:56:25.685Z,7.77
2018-08-03T12:58:55.060Z,5.50
2018-08-03T13:01:24.493Z,6.03
2018-08-03T13:03:53.876Z,5.33
2018-08-03T13:06:23.283Z,5.30
2018-08-03T13:08:53.495Z,5.30
2018-08-03T13:11:23.050Z,4.90
2018-08-03T13:13:53.156Z,4.63
2018-08-03T13:16:22.568Z,4.60
2018-08-03T13:18:52.204Z,4.30
2018-08-03T13:21:31.673Z,5.20
2018-08-03T13:24:01.999Z,5.43
2018-08-03T13:26:31.744Z,4.33
2018-08-03T13:29:01.351Z,4.90
2018-08-03T13:31:31.225Z,5.30
2018-08-03T13:34:01.065Z,5.20
2018-08-03T13:36:31.304Z,5.67
2018-08-03T13:39:00.793Z,5.03
2018-08-03T13:41:30.318Z,5.30
2018-08-03T13:44:00.081Z,5.47
2018-08-03T13:46:29.505Z,5.33
2018-08-03T13:48:58.933Z,4.73
2018-08-03T13:51:28.337Z,4.90
2018-08-03T13:53:57.723Z,5.20
2018-08-03T13:56:27.102Z,5.10
2018-08-03T13:58:56.490Z,4.70
2018-08-03T14:01:37.427Z,6.13
2018-08-03T14:04:06.963Z,5.23
2018-08-03T14:06:36.513Z,5.20
2018-08-03T14:09:07.254Z,5.27
2018-08-03T14:11:36.668Z,5.80
2018-08-03T14:14:06.139Z,5.40
2018-08-03T14:16:35.528Z,5.00
2018-08-03T14:19:05.679Z,5.80
2018-08-03T14:21:35.111Z,6.20
2018-08-03T14:24:04.885Z,4.70
2018-08-03T14:26:34.282Z,5.17
2018-08-03T14:29:03.727Z,5.90
2018-08-03T14:31:33.259Z,5.80
2018-08-03T14:34:02.904Z,6.50
2018-08-03T14:36:32.292Z,5.90
2018-08-03T14:39:01.761Z,5.80
2018-08-03T14:41:31.195Z,6.80
2018-08-03T14:44:00.629Z,6.63
2018-08-03T14:46:30.273Z,6.40
2018-08-03T14:48:59.680Z,6.50
2018-08-03T14:51:29.482Z,6.90
2018-08-03T14:53:58.879Z,6.43
2018-08-03T14:56:28.313Z,6.70
2018-08-03T14:58:57.760Z,6.80
2018-08-03T15:01:27.523Z,6.50
2018-08-03T15:03:57.729Z,6.03
2018-08-03T15:06:27.170Z,6.43
2018-08-03T15:08:57.056Z,6.50
2018-08-03T15:11:26.508Z,6.97
2018-08-03T15:13:55.938Z,7.23
2018-08-03T15:16:25.714Z,5.70
2018-08-03T15:18:55.170Z,6.40
2018-08-03T15:21:24.576Z,6.97
2018-08-03T15:23:54.021Z,6.80
2018-08-03T15:26:23.484Z,6.20
2018-08-03T15:28:52.873Z,6.60
2018-08-03T15:31:22.461Z,6.90
2018-08-03T15:33:51.900Z,6.63
2018-08-03T15:36:21.341Z,6.57
2018-08-03T15:38:50.768Z,5.77
2018-08-03T15:41:20.159Z,5.43
2018-08-03T15:43:49.551Z,6.50
2018-08-03T15:46:19.074Z,6.03
2018-08-03T15:48:48.426Z,5.90
2018-08-03T15:51:17.930Z,5.33
2018-08-03T15:53:47.334Z,5.87
2018-08-03T15:56:16.812Z,6.07
2018-08-03T15:58:46.321Z,6.87
2018-08-03T16:01:15.894Z,5.40
2018-08-03T16:03:45.285Z,5.33
2018-08-03T16:06:14.717Z,5.93
2018-08-03T16:08:44.116Z,6.17
2018-08-03T16:11:13.502Z,5.47
2018-08-03T16:13:42.877Z,5.27
2018-08-03T16:16:12.307Z,5.80
2018-08-03T16:18:41.666Z,4.97
2018-08-03T16:21:11.139Z,4.97
2018-08-03T16:23:40.534Z,5.03
2018-08-03T16:26:09.951Z,5.67
2018-08-03T16:28:39.348Z,5.73
2018-08-03T16:31:08.797Z,5.23
2018-08-03T16:33:38.229Z,5.43
2018-08-03T16:36:07.993Z,6.00
2018-08-03T16:38:37.444Z,6.13
2018-08-03T16:41:07.357Z,5.00
2018-08-03T16:43:36.752Z,6.00
2018-08-03T16:46:06.451Z,6.00
2018-08-03T16:48:36.178Z,6.13
2018-08-03T16:51:05.808Z,5.83
2018-08-03T16:53:35.230Z,6.47
2018-08-03T16:56:05.120Z,6.60
2018-08-03T16:58:34.583Z,6.70
2018-08-03T17:01:04.178Z,7.37
2018-08-03T17:03:33.694Z,6.43
2018-08-03T17:06:03.236Z,5.73
2018-08-03T17:08:33.222Z,6.30
2018-08-03T17:11:02.762Z,6.50
2018-08-03T17:13:32.164Z,7.07
2018-08-03T17:16:01.809Z,7.20
2018-08-03T17:18:31.259Z,6.60
2018-08-03T17:21:00.608Z,6.97
2018-08-03T17:23:30.002Z,7.60
2018-08-03T17:25:59.409Z,7.33
2018-08-03T17:28:28.863Z,8.83
2018-08-03T17:30:58.521Z,9.43
2018-08-03T17:33:27.961Z,9.70
2018-08-03T17:35:58.286Z,9.43
2018-08-03T17:38:27.849Z,10.00
2018-08-03T17:40:57.736Z,11.10
2018-08-03T17:43:27.237Z,10.70
2018-08-03T17:45:57.950Z,10.60
2018-08-03T17:48:27.651Z,9.90
2018-08-03T17:50:57.461Z,11.20
2018-08-03T17:53:26.898Z,10.90
2018-08-03T17:55:56.431Z,10.60
2018-08-03T17:58:25.961Z,10.33
2018-08-03T18:00:55.445Z,10.73
2018-08-03T18:03:25.022Z,11.07
2018-08-03T18:05:55.069Z,11.07
2018-08-03T18:08:24.689Z,12.37
2018-08-03T18:10:54.086Z,10.00
2018-08-03T18:13:23.736Z,9.67
2018-08-03T18:15:53.202Z,10.10
2018-08-03T18:18:22.842Z,10.90
2018-08-03T18:20:52.235Z,10.10
2018-08-03T18:23:21.633Z,9.63
2018-08-03T18:25:51.234Z,11.20
2018-08-03T18:28:20.637Z,9.90
2018-08-03T18:30:50.364Z,10.73
2018-08-03T18:33:19.834Z,10.33
2018-08-03T18:35:50.264Z,10.37
2018-08-03T18:38:19.788Z,11.40
2018-08-03T18:40:49.245Z,10.97
2018-08-03T18:43:18.963Z,11.20
2018-08-03T18:45:48.390Z,10.70
2018-08-03T18:48:17.810Z,9.90
2018-08-03T18:50:48.149Z,10.73
2018-08-03T18:53:17.564Z,10.30
2018-08-03T18:55:47.001Z,11.07
2018-08-03T18:58:16.411Z,11.57
2018-08-03T19:00:46.017Z,10.57
2018-08-03T19:03:15.488Z,10.10
2018-08-03T19:05:44.949Z,12.07
2018-08-03T19:08:14.356Z,10.47
2018-08-03T19:10:43.837Z,10.97
2018-08-03T19:13:13.370Z,11.07
2018-08-03T19:15:43.111Z,10.37
2018-08-03T19:18:12.674Z,12.10
2018-08-03T19:20:42.124Z,11.07
2018-08-03T19:23:11.698Z,11.70
2018-08-03T19:25:41.115Z,10.50
2018-08-03T19:28:10.508Z,11.73
2018-08-03T19:30:39.924Z,10.37
2018-08-03T19:33:09.352Z,9.83
2018-08-03T19:35:39.056Z,11.00
2018-08-03T19:38:08.706Z,11.03
2018-08-03T19:40:38.117Z,10.47
2018-08-03T19:43:07.589Z,12.50
2018-08-03T19:45:36.999Z,12.97
2018-08-03T19:48:06.404Z,11.33
2018-08-03T19:50:35.829Z,12.10
2018-08-03T19:53:05.368Z,11.30
2018-08-03T19:55:35.269Z,11.27
2018-08-03T19:58:04.997Z,10.53
2018-08-03T20:00:34.434Z,12.10
2018-08-03T20:03:04.108Z,12.70
2018-08-03T20:05:33.624Z,26.60
2018-08-03T20:08:03.481Z,20.33
2018-08-03T20:10:32.918Z,11.20
2018-08-03T20:13:02.405Z,11.93
2018-08-03T20:15:31.808Z,11.90
2018-08-03T20:18:01.298Z,14.60
2018-08-03T20:20:30.743Z,11.43
2018-08-03T20:23:00.151Z,11.53
2018-08-03T20:25:29.980Z,11.50
2018-08-03T20:27:59.473Z,11.23
2018-08-03T20:30:28.916Z,11.70
2018-08-03T20:32:59.478Z,10.93
2018-08-03T20:35:29.238Z,11.47
2018-08-03T20:37:58.681Z,11.90
2018-08-03T20:40:28.144Z,11.90
2018-08-03T20:42:58.473Z,11.73
2018-08-03T20:45:27.897Z,12.27
2018-08-03T20:47:57.335Z,12.77
2018-08-03T20:50:26.865Z,13.53
2018-08-03T20:52:56.293Z,12.70
2018-08-03T20:55:26.492Z,12.63
2018-08-03T20:57:56.076Z,11.73
2018-08-03T21:00:25.541Z,13.10
2018-08-03T21:02:54.930Z,14.30
2018-08-03T21:05:24.600Z,13.80
2018-08-03T21:07:54.026Z,14.67
2018-08-03T21:10:23.452Z,17.50
2018-08-03T21:12:53.028Z,15.10
2018-08-03T21:15:22.423Z,13.60
2018-08-03T21:17:52.033Z,13.93
2018-08-03T21:20:21.450Z,12.70
2018-08-03T21:22:50.929Z,14.47
2018-08-03T21:25:20.649Z,13.70
2018-08-03T21:27:50.114Z,14.80
2018-08-03T21:30:19.590Z,14.30
2018-08-03T21:32:49.210Z,14.23
2018-08-03T21:35:18.695Z,15.80
2018-08-03T21:37:48.151Z,15.33
2018-08-03T21:40:17.580Z,14.73
2018-08-03T21:42:47.049Z,14.00
2018-08-03T21:45:16.541Z,14.00
2018-08-03T21:47:45.971Z,15.53
2018-08-03T21:50:16.554Z,14.47
2018-08-03T21:52:47.846Z,14.93
2018-08-03T21:55:17.795Z,13.40
2018-08-03T21:57:48.569Z,13.83
2018-08-03T22:00:20.876Z,12.63
2018-08-03T22:02:51.119Z,11.87
2018-08-03T22:05:20.993Z,14.40
2018-08-03T22:07:50.877Z,13.23
2018-08-03T22:10:20.318Z,15.50
2018-08-03T22:12:49.783Z,14.07
2018-08-03T22:15:19.202Z,13.90
2018-08-03T22:17:48.713Z,14.10
2018-08-03T22:20:18.437Z,15.13
2018-08-03T22:22:48.174Z,15.20
2018-08-03T22:25:17.732Z,13.93
2018-08-03T22:27:47.252Z,15.57
2018-08-03T22:30:18.758Z,15.70
2018-08-03T22:32:49.146Z,15.73
2018-08-03T22:35:18.806Z,16.40
2018-08-03T22:37:48.289Z,14.97
2018-08-03T22:40:17.770Z,14.40
2018-08-03T22:42:47.432Z,15.10
2018-08-03T22:45:17.079Z,16.50
2018-08-03T22:47:46.551Z,14.00
2018-08-03T22:50:16.301Z,14.87
2018-08-03T22:52:45.722Z,14.30
2018-08-03T22:55:15.184Z,14.30
2018-08-03T22:57:44.607Z,15.20
2018-08-03T23:00:14.020Z,14.70
2018-08-03T23:02:43.453Z,14.70
2018-08-03T23:05:13.198Z,13.60
2018-08-03T23:07:42.702Z,14.83
2018-08-03T23:10:12.106Z,13.90
2018-08-03T23:12:41.578Z,15.20
2018-08-03T23:15:10.984Z,13.93
2018-08-03T23:17:40.397Z,14.87
2018-08-03T23:20:09.801Z,14.73
2018-08-03T23:22:39.552Z,14.40
2018-08-03T23:25:08.984Z,14.53
2018-08-03T23:27:38.421Z,15.30
2018-08-03T23:30:08.948Z,13.33
2018-08-03T23:32:38.658Z,13.80
2018-08-03T23:35:08.117Z,14.20
2018-08-03T23:37:37.628Z,14.93
2018-08-03T23:40:07.182Z,15.77
2018-08-03T23:42:36.981Z,14.00
2018-08-03T23:45:07.237Z,14.53
2018-08-03T23:47:37.153Z,13.43
2018-08-03T23:50:12.060Z,14.77
2018-08-03T23:52:41.892Z,14.63
2018-08-03T23:55:11.366Z,15.00
2018-08-03T23:57:40.825Z,14.47
